createdAt,value
2023-03-27T00:01:27.038Z,97621.41
2023-03-27T00:03:55.682Z,97622.02
2023-03-27T00:06:24.989Z,97622.96
2023-03-27T00:08:53.468Z,97619.88
2023-03-27T00:11:22.157Z,97618.20
2023-03-27T00:13:51.384Z,97618.52
2023-03-27T00:16:21.745Z,97618.73
2023-03-27T00:18:49.834Z,97615.40
2023-03-27T00:21:17.673Z,97612.58
2023-03-27T00:23:45.481Z,97611.54
2023-03-27T00:26:14.469Z,97611.09
2023-03-27T00:28:42.417Z,97616.73
2023-03-27T00:31:15.617Z,97614.91
2023-03-27T00:33:43.688Z,97610.96
2023-03-27T00:36:11.916Z,97618.77
2023-03-27T00:38:40.655Z,97620.31
2023-03-27T00:41:09.254Z,97618.27
2023-03-27T00:43:45.348Z,97618.11
2023-03-27T00:46:31.739Z,97613.89
2023-03-27T00:49:03.844Z,97613.42
2023-03-27T00:51:32.145Z,97610.13
2023-03-27T00:54:00.837Z,97602.39
2023-03-27T00:56:28.889Z,97601.58
2023-03-27T00:59:06.945Z,97604.78
2023-03-27T01:01:36.243Z,97603.88
2023-03-27T01:04:07.493Z,97595.48
2023-03-27T01:06:36.916Z,97597.91
2023-03-27T01:09:04.818Z,97597.58
2023-03-27T01:11:45.293Z,97591.14
2023-03-27T01:14:37.313Z,97590.91
2023-03-27T01:17:36.251Z,97592.40
2023-03-27T01:20:42.618Z,97593.91
2023-03-27T01:23:58.672Z,97591.64
2023-03-27T01:26:19.479Z,97587.98
2023-03-27T01:29:42.653Z,97590.86
2023-03-27T01:32:42.250Z,97587.61
2023-03-27T01:35:16.194Z,97587.41
2023-03-27T01:38:19.661Z,97590.77
2023-03-27T01:40:59.172Z,97586.93
2023-03-27T01:43:58.395Z,97584.61
2023-03-27T01:46:43.506Z,97578.39
2023-03-27T01:49:27.284Z,97576.39
2023-03-27T01:52:00.626Z,97577.98
2023-03-27T01:54:33.876Z,97577.07
2023-03-27T01:57:10.999Z,97581.33
2023-03-27T01:59:42.938Z,97581.29
2023-03-27T02:02:20.296Z,97581.02
2023-03-27T02:05:03.721Z,97584.27
2023-03-27T02:07:38.497Z,97589.05
2023-03-27T02:10:11.380Z,97593.02
2023-03-27T02:12:49.009Z,97592.46
2023-03-27T02:15:25.440Z,97598.79
2023-03-27T02:18:06.492Z,97599.54
2023-03-27T02:20:35.891Z,97599.73
2023-03-27T02:23:06.587Z,97603.73
2023-03-27T02:25:36.020Z,97608.03
2023-03-27T02:28:29.348Z,97611.83
2023-03-27T02:31:32.181Z,97612.71
2023-03-27T02:34:20.676Z,97608.34
2023-03-27T02:36:57.492Z,97613.58
2023-03-27T02:39:57.631Z,97616.56
2023-03-27T02:42:47.884Z,97621.36
2023-03-27T02:45:48.170Z,97628.50
2023-03-27T02:48:28.221Z,97632.29
2023-03-27T02:51:01.268Z,97638.81
2023-03-27T02:53:35.302Z,97640.85
2023-03-27T02:56:06.030Z,97644.75
2023-03-27T02:58:39.953Z,97641.25
2023-03-27T03:01:18.620Z,97653.22
2023-03-27T03:04:28.650Z,97661.11
2023-03-27T03:07:16.125Z,97667.96
2023-03-27T03:09:44.609Z,97674.69
2023-03-27T03:12:12.722Z,97687.11
2023-03-27T03:14:46.687Z,97696.75
2023-03-27T03:17:16.367Z,97704.38
2023-03-27T03:19:46.231Z,97712.60
2023-03-27T03:22:14.745Z,97713.54
2023-03-27T03:24:43.803Z,97718.63
2023-03-27T03:27:14.751Z,97724.83
2023-03-27T03:29:51.788Z,97733.33
2023-03-27T03:32:21.461Z,97732.66
2023-03-27T03:34:51.751Z,97739.77
2023-03-27T03:37:20.119Z,97743.16
2023-03-27T03:39:47.958Z,97747.41
2023-03-27T03:42:22.393Z,97752.52
2023-03-27T03:44:52.733Z,97762.93
2023-03-27T03:47:22.521Z,97772.38
2023-03-27T03:49:50.510Z,97786.28
2023-03-27T03:52:18.727Z,97784.10
2023-03-27T03:54:47.000Z,97795.96
2023-03-27T03:57:15.341Z,97794.20
2023-03-27T03:59:44.058Z,97795.82
2023-03-27T04:02:30.994Z,97792.27
2023-03-27T04:05:08.572Z,97793.42
2023-03-27T04:07:40.235Z,97797.73
2023-03-27T04:10:31.218Z,97808.37
2023-03-27T04:13:00.522Z,97822.09
2023-03-27T04:15:30.851Z,97823.95
2023-03-27T04:18:19.473Z,97823.51
2023-03-27T04:20:50.718Z,97835.98
2023-03-27T04:23:20.166Z,97854.67
2023-03-27T04:25:48.796Z,97847.50
2023-03-27T04:28:21.413Z,97865.55
2023-03-27T04:30:54.489Z,97871.88
2023-03-27T04:33:52.276Z,97879.38
2023-03-27T04:36:39.645Z,97887.14
2023-03-27T04:39:13.092Z,97893.23
2023-03-27T04:41:41.090Z,97900.76
2023-03-27T04:44:09.766Z,97911.73
2023-03-27T04:46:41.521Z,97923.43
2023-03-27T04:49:11.197Z,97923.08
2023-03-27T04:51:46.973Z,97938.23
2023-03-27T04:54:15.087Z,97939.09
2023-03-27T04:56:46.557Z,97954.14
2023-03-27T04:59:15.694Z,97964.98
2023-03-27T05:01:44.754Z,97963.82
2023-03-27T05:04:21.881Z,97975.09
2023-03-27T05:07:15.581Z,97987.74
2023-03-27T05:09:43.414Z,97992.31
2023-03-27T05:12:11.969Z,97998.84
2023-03-27T05:14:48.665Z,98003.52
2023-03-27T05:17:32.629Z,98016.61
2023-03-27T05:20:00.837Z,98029.82
2023-03-27T05:22:28.769Z,98036.45
2023-03-27T05:25:05.228Z,98045.70
2023-03-27T05:27:33.308Z,98050.17
2023-03-27T05:30:01.590Z,98058.59
2023-03-27T05:32:30.649Z,98063.89
2023-03-27T05:35:18.073Z,98068.70
2023-03-27T05:37:48.078Z,98078.85
2023-03-27T05:40:27.514Z,98084.04
2023-03-27T05:42:57.681Z,98085.23
2023-03-27T05:45:29.366Z,98090.83
2023-03-27T05:47:59.417Z,98102.16
2023-03-27T05:50:33.544Z,98105.85
2023-03-27T05:53:05.484Z,98113.73
2023-03-27T05:55:38.837Z,98118.08
2023-03-27T05:58:09.908Z,98131.61
2023-03-27T06:00:42.177Z,98139.91
2023-03-27T06:03:12.972Z,98148.84
2023-03-27T06:06:11.979Z,98149.73
2023-03-27T06:08:40.759Z,98161.41
2023-03-27T06:11:11.306Z,98160.75
2023-03-27T06:13:45.849Z,98166.55
2023-03-27T06:16:20.778Z,98176.65
2023-03-27T06:19:10.487Z,98177.02
2023-03-27T06:21:46.153Z,98174.67
2023-03-27T06:24:14.070Z,98177.20
2023-03-27T06:26:42.689Z,98179.55
2023-03-27T06:29:10.915Z,98181.59
2023-03-27T06:31:45.860Z,98187.86
2023-03-27T06:34:19.538Z,98189.63
2023-03-27T06:36:52.584Z,98194.55
2023-03-27T06:39:21.591Z,98193.00
2023-03-27T06:41:51.042Z,98187.28
2023-03-27T06:44:34.523Z,98191.17
2023-03-27T06:47:29.937Z,98200.40
2023-03-27T06:50:25.451Z,98200.83
2023-03-27T06:52:55.305Z,98196.77
2023-03-27T06:55:39.891Z,98202.54
2023-03-27T06:58:08.667Z,98207.09
2023-03-27T07:00:39.134Z,98204.62
2023-03-27T07:03:30.038Z,98208.03
2023-03-27T07:06:03.865Z,98213.27
2023-03-27T07:08:42.004Z,98214.60
2023-03-27T07:11:12.079Z,98218.83
2023-03-27T07:13:49.222Z,98225.27
2023-03-27T07:16:23.367Z,98221.63
2023-03-27T07:18:51.628Z,98223.60
2023-03-27T07:21:19.802Z,98234.88
2023-03-27T07:23:47.757Z,98224.60
2023-03-27T07:26:20.926Z,98232.98
2023-03-27T07:29:03.918Z,98234.73
2023-03-27T07:31:51.610Z,98229.39
2023-03-27T07:34:20.857Z,98239.82
2023-03-27T07:37:08.634Z,98241.98
2023-03-27T07:39:37.130Z,98251.08
2023-03-27T07:42:05.123Z,98249.86
2023-03-27T07:44:59.195Z,98259.23
2023-03-27T07:47:28.501Z,98259.22
2023-03-27T07:49:58.268Z,98260.30
2023-03-27T07:52:26.394Z,98255.40
2023-03-27T07:54:59.079Z,98268.84
2023-03-27T07:57:42.501Z,98271.98
2023-03-27T08:00:19.767Z,98276.45
2023-03-27T08:03:08.552Z,98275.07
2023-03-27T08:05:38.437Z,98275.38
2023-03-27T08:08:10.946Z,98283.61
2023-03-27T08:10:59.322Z,98279.13
2023-03-27T08:13:30.456Z,98290.79
2023-03-27T08:16:07.394Z,98275.27
2023-03-27T08:18:36.804Z,98284.30
2023-03-27T08:21:08.427Z,98292.09
2023-03-27T08:23:37.976Z,98291.67
2023-03-27T08:26:06.213Z,98294.15
2023-03-27T08:28:40.058Z,98307.54
2023-03-27T08:31:12.623Z,98306.06
2023-03-27T08:33:42.022Z,98304.50
2023-03-27T08:36:14.554Z,98312.14
2023-03-27T08:38:43.334Z,98314.63
2023-03-27T08:41:38.954Z,98314.17
2023-03-27T08:44:18.645Z,98324.81
2023-03-27T08:46:53.533Z,98334.48
2023-03-27T08:49:22.713Z,98333.48
2023-03-27T08:52:29.267Z,98333.25
2023-03-27T08:55:18.855Z,98332.59
2023-03-27T08:57:59.768Z,98340.70
2023-03-27T09:00:36.297Z,98352.79
2023-03-27T09:03:27.219Z,98364.21
2023-03-27T09:05:59.443Z,98360.89
2023-03-27T09:08:46.998Z,98370.23
2023-03-27T09:11:29.922Z,98365.49
2023-03-27T09:14:10.338Z,98362.58
2023-03-27T09:16:49.328Z,98365.33
2023-03-27T09:19:27.179Z,98375.98
2023-03-27T09:22:20.440Z,98370.92
2023-03-27T09:25:03.830Z,98377.14
2023-03-27T09:28:01.564Z,98382.06
2023-03-27T09:30:39.306Z,98386.30
2023-03-27T09:33:25.549Z,98386.52
2023-03-27T09:35:54.204Z,98401.27
2023-03-27T09:38:37.515Z,98390.84
2023-03-27T09:41:13.408Z,98403.14
2023-03-27T09:43:51.592Z,98402.65
2023-03-27T09:46:22.832Z,98408.50
2023-03-27T09:49:01.100Z,98414.66
2023-03-27T09:51:38.187Z,98417.04
2023-03-27T09:54:08.747Z,98409.92
2023-03-27T09:56:40.462Z,98414.92
2023-03-27T09:59:20.150Z,98417.08
2023-03-27T10:01:51.658Z,98421.25
2023-03-27T10:04:23.066Z,98428.11
2023-03-27T10:07:05.563Z,98428.42
2023-03-27T10:09:42.871Z,98433.46
2023-03-27T10:12:19.429Z,98432.58
2023-03-27T10:14:52.558Z,98437.62
2023-03-27T10:17:27.325Z,98441.34
2023-03-27T10:20:09.098Z,98450.67
2023-03-27T10:22:41.275Z,98454.08
2023-03-27T10:25:19.298Z,98452.42
2023-03-27T10:27:47.348Z,98443.81
2023-03-27T10:30:38.047Z,98449.64
2023-03-27T10:33:31.050Z,98452.95
2023-03-27T10:36:12.751Z,98454.55
2023-03-27T10:38:42.243Z,98457.89
2023-03-27T10:41:28.696Z,98460.36
2023-03-27T10:43:57.955Z,98459.55
2023-03-27T10:46:28.417Z,98459.25
2023-03-27T10:49:10.232Z,98474.38
2023-03-27T10:51:59.867Z,98477.62
2023-03-27T10:55:01.703Z,98483.15
2023-03-27T10:57:35.597Z,98480.92
2023-03-27T11:00:19.363Z,98492.39
2023-03-27T11:03:20.254Z,98489.64
2023-03-27T11:05:53.688Z,98492.30
2023-03-27T11:08:48.016Z,98496.40
2023-03-27T11:11:22.619Z,98495.79
2023-03-27T11:13:54.191Z,98496.88
2023-03-27T11:16:29.448Z,98497.24
2023-03-27T11:19:12.307Z,98506.31
2023-03-27T11:22:15.161Z,98509.08
2023-03-27T11:24:50.448Z,98511.83
2023-03-27T11:27:41.456Z,98514.25
2023-03-27T11:30:33.979Z,98515.80
2023-03-27T11:33:24.416Z,98516.98
2023-03-27T11:36:06.157Z,98521.44
2023-03-27T11:39:23.976Z,98530.06
2023-03-27T11:42:00.676Z,98532.66
2023-03-27T11:44:33.943Z,98537.65
2023-03-27T11:47:38.807Z,98529.63
2023-03-27T11:50:39.447Z,98536.40
2023-03-27T11:53:26.064Z,98538.36
2023-03-27T11:56:31.989Z,98540.73
2023-03-27T11:59:33.943Z,98543.89
2023-03-27T12:02:28.967Z,98535.42
2023-03-27T12:05:06.930Z,98539.94
2023-03-27T12:07:48.749Z,98533.23
2023-03-27T12:10:29.432Z,98541.73
2023-03-27T12:14:00.550Z,98536.39
2023-03-27T12:17:10.045Z,98545.58
2023-03-27T12:20:28.996Z,98529.06
2023-03-27T12:23:10.944Z,98538.03
2023-03-27T12:26:14.650Z,98539.17
2023-03-27T12:29:42.004Z,98519.20
2023-03-27T12:32:37.502Z,98533.14
2023-03-27T12:35:12.340Z,98530.16
2023-03-27T12:37:57.158Z,98539.90
2023-03-27T12:40:31.419Z,98535.14
2023-03-27T12:43:07.350Z,98539.91
2023-03-27T12:45:44.183Z,98534.63
2023-03-27T12:48:20.575Z,98537.83
2023-03-27T12:50:52.719Z,98543.38
2023-03-27T12:53:26.812Z,98541.46
2023-03-27T12:56:13.623Z,98547.11
2023-03-27T12:58:42.843Z,98558.14
2023-03-27T13:04:41.443Z,98549.77
2023-03-27T13:07:29.206Z,98529.67
2023-03-27T13:10:40.933Z,98538.42
2023-03-27T13:13:32.473Z,98551.14
2023-03-27T13:16:38.931Z,98550.63
2023-03-27T13:19:13.191Z,98568.45
2023-03-27T13:22:14.201Z,98567.13
2023-03-27T13:24:42.406Z,98578.73
2023-03-27T13:27:52.326Z,98571.88
2023-03-27T13:30:47.781Z,98579.41
2023-03-27T13:33:36.172Z,98581.80
2023-03-27T13:36:17.534Z,98576.23
2023-03-27T13:38:51.996Z,98566.73
2023-03-27T13:41:46.851Z,98573.58
2023-03-27T13:44:41.405Z,98576.59
2023-03-27T13:47:34.269Z,98591.39
2023-03-27T13:50:27.342Z,98588.31
2023-03-27T13:53:10.530Z,98585.73
2023-03-27T13:56:30.589Z,98582.42
2023-03-27T13:59:43.780Z,98586.13
2023-03-27T14:02:46.498Z,98593.13
2023-03-27T14:05:38.598Z,98602.86
2023-03-27T14:08:31.634Z,98607.89
2023-03-27T14:11:39.152Z,98609.13
2023-03-27T14:14:33.748Z,98616.40
2023-03-27T14:17:11.395Z,98618.45
2023-03-27T14:20:01.644Z,98611.60
2023-03-27T14:22:38.742Z,98608.81
2023-03-27T14:25:14.181Z,98609.66
2023-03-27T14:28:00.111Z,98621.16
2023-03-27T14:30:45.536Z,98616.69
2023-03-27T14:33:28.853Z,98618.31
2023-03-27T14:36:05.546Z,98627.48
2023-03-27T14:38:36.721Z,98624.39
2023-03-27T14:41:06.977Z,98617.61
2023-03-27T14:43:51.495Z,98622.09
2023-03-27T14:46:24.066Z,98627.77
2023-03-27T14:48:58.055Z,98630.42
2023-03-27T14:51:37.215Z,98634.98
2023-03-27T14:54:13.931Z,98645.77
2023-03-27T14:56:50.824Z,98661.08
2023-03-27T14:59:26.770Z,98664.30
2023-03-27T15:01:59.913Z,98646.68
2023-03-27T15:04:30.272Z,98652.15
2023-03-27T15:07:18.737Z,98668.98
2023-03-27T15:10:07.842Z,98675.77
2023-03-27T15:13:10.222Z,98685.45
2023-03-27T15:15:44.228Z,98691.73
2023-03-27T15:18:25.363Z,98694.65
2023-03-27T15:20:56.667Z,98695.07
2023-03-27T15:23:31.196Z,98698.80
2023-03-27T15:26:08.041Z,98705.02
2023-03-27T15:29:18.105Z,98709.95
2023-03-27T15:31:49.594Z,98713.34
2023-03-27T15:34:34.558Z,98728.27
2023-03-27T15:37:07.596Z,98726.93
2023-03-27T15:39:38.297Z,98718.51
2023-03-27T15:42:12.619Z,98723.48
2023-03-27T15:44:42.552Z,98725.05
2023-03-27T15:47:28.606Z,98724.46
2023-03-27T15:50:28.010Z,98737.85
2023-03-27T15:52:58.257Z,98737.77
2023-03-27T15:55:55.323Z,98738.30
2023-03-27T15:58:28.571Z,98733.20
2023-03-27T16:01:02.006Z,98732.92
2023-03-27T16:03:34.316Z,98743.48
2023-03-27T16:06:04.144Z,98752.11
2023-03-27T16:08:38.387Z,98749.58
2023-03-27T16:11:06.435Z,98750.98
2023-03-27T16:13:42.332Z,98750.69
2023-03-27T16:16:24.670Z,98748.73
2023-03-27T16:18:53.247Z,98751.83
2023-03-27T16:21:24.808Z,98764.02
2023-03-27T16:23:52.731Z,98755.91
2023-03-27T16:26:27.871Z,98756.08
2023-03-27T16:28:59.743Z,98765.06
2023-03-27T16:31:27.799Z,98766.82
2023-03-27T16:33:56.009Z,98770.29
2023-03-27T16:36:32.036Z,98768.64
2023-03-27T16:38:59.939Z,98777.33
2023-03-27T16:41:28.266Z,98776.75
2023-03-27T16:43:56.340Z,98781.36
2023-03-27T16:46:27.118Z,98785.30
2023-03-27T16:48:56.427Z,98790.86
2023-03-27T16:51:27.383Z,98798.03
2023-03-27T16:53:55.593Z,98801.09
2023-03-27T16:56:23.605Z,98806.61
2023-03-27T16:58:51.712Z,98808.91
2023-03-27T17:01:19.663Z,98815.38
2023-03-27T17:03:47.577Z,98822.11
2023-03-27T17:06:17.581Z,98829.02
2023-03-27T17:08:45.856Z,98831.73
2023-03-27T17:11:14.002Z,98836.30
2023-03-27T17:13:43.623Z,98841.39
2023-03-27T17:16:11.860Z,98845.23
2023-03-27T17:18:39.707Z,98847.65
2023-03-27T17:21:08.045Z,98849.50
2023-03-27T17:23:36.359Z,98854.99
2023-03-27T17:26:04.847Z,98855.95
2023-03-27T17:28:33.103Z,98855.02
2023-03-27T17:31:05.296Z,98861.91
2023-03-27T17:33:33.992Z,98866.21
2023-03-27T17:36:08.655Z,98869.89
2023-03-27T17:38:37.097Z,98869.60
2023-03-27T17:41:06.521Z,98868.38
2023-03-27T17:43:34.481Z,98871.38
2023-03-27T17:46:03.239Z,98876.04
2023-03-27T17:48:37.620Z,98880.34
2023-03-27T17:51:09.546Z,98879.29
2023-03-27T17:53:39.093Z,98885.34
2023-03-27T17:56:08.073Z,98886.85
2023-03-27T17:58:37.142Z,98886.06
2023-03-27T18:01:14.017Z,98892.73
2023-03-27T18:03:43.108Z,98898.67
2023-03-27T18:06:11.606Z,98901.50
2023-03-27T18:08:39.755Z,98897.96
2023-03-27T18:11:10.285Z,98901.07
2023-03-27T18:13:39.220Z,98906.67
2023-03-27T18:16:11.204Z,98910.69
2023-03-27T18:18:39.988Z,98911.54
2023-03-27T18:21:09.405Z,98914.68
2023-03-27T18:23:45.897Z,98917.00
2023-03-27T18:26:16.688Z,98919.48
2023-03-27T18:28:44.972Z,98924.06
2023-03-27T18:31:13.358Z,98925.02
2023-03-27T18:33:41.697Z,98926.20
2023-03-27T18:36:11.819Z,98925.15
2023-03-27T18:38:41.744Z,98930.34
2023-03-27T18:41:10.202Z,98935.83
2023-03-27T18:43:38.391Z,98938.58
2023-03-27T18:46:07.824Z,98940.11
2023-03-27T18:48:36.427Z,98940.81
2023-03-27T18:51:06.079Z,98941.73
2023-03-27T18:53:34.093Z,98943.64
2023-03-27T18:56:02.503Z,98946.77
2023-03-27T18:58:31.336Z,98943.96
2023-03-27T19:01:00.002Z,98947.11
2023-03-27T19:03:34.919Z,98950.21
2023-03-27T19:06:07.151Z,98944.69
2023-03-27T19:08:38.973Z,98945.42
2023-03-27T19:11:08.121Z,98949.27
2023-03-27T19:13:55.664Z,98949.59
2023-03-27T19:16:59.343Z,98956.47
2023-03-27T19:19:46.649Z,98959.05
2023-03-27T19:22:21.950Z,98954.34
2023-03-27T19:25:12.909Z,98957.64
2023-03-27T19:27:41.173Z,98959.33
2023-03-27T19:30:11.545Z,98961.35
2023-03-27T19:32:40.067Z,98964.24
2023-03-27T19:35:08.998Z,98964.09
2023-03-27T19:37:37.080Z,98963.14
2023-03-27T19:40:05.500Z,98960.45
2023-03-27T19:42:34.104Z,98962.45
2023-03-27T19:45:02.125Z,98963.25
2023-03-27T19:47:29.989Z,98970.80
2023-03-27T19:49:58.506Z,98971.99
2023-03-27T19:52:47.712Z,98973.84
2023-03-27T19:55:25.343Z,98970.32
2023-03-27T19:57:54.950Z,98971.30
2023-03-27T20:00:22.962Z,98972.42
2023-03-27T20:02:52.756Z,98970.92
2023-03-27T20:05:22.181Z,98969.23
2023-03-27T20:07:50.232Z,98969.51
2023-03-27T20:10:18.057Z,98974.08
2023-03-27T20:12:45.905Z,98972.89
2023-03-27T20:15:14.077Z,98971.20
2023-03-27T20:17:43.657Z,98970.77
2023-03-27T20:20:11.801Z,98970.84
2023-03-27T20:22:54.170Z,98964.43
2023-03-27T20:25:24.847Z,98964.24
2023-03-27T20:27:52.780Z,98964.08
2023-03-27T20:30:21.041Z,98960.66
2023-03-27T20:32:50.929Z,98962.95
2023-03-27T20:35:24.208Z,98962.98
2023-03-27T20:37:56.110Z,98963.00
2023-03-27T20:40:26.410Z,98961.11
2023-03-27T20:43:02.919Z,98956.11
2023-03-27T20:45:31.523Z,98955.77
2023-03-27T20:48:03.960Z,98955.41
2023-03-27T20:50:34.968Z,98952.63
2023-03-27T20:53:04.601Z,98949.33
2023-03-27T20:55:37.502Z,98951.00
2023-03-27T20:58:09.445Z,98952.34
2023-03-27T21:00:37.306Z,98953.48
2023-03-27T21:03:05.373Z,98960.89
2023-03-27T21:05:38.353Z,98964.27
2023-03-27T21:08:07.456Z,98959.38
2023-03-27T21:10:36.001Z,98962.42
2023-03-27T21:13:04.472Z,98958.65
2023-03-27T21:15:33.559Z,98962.60
2023-03-27T21:18:01.620Z,98963.03
2023-03-27T21:20:30.685Z,98966.73
2023-03-27T21:22:59.193Z,98973.91
2023-03-27T21:25:27.069Z,98969.08
2023-03-27T21:28:00.793Z,98972.14
2023-03-27T21:30:46.895Z,98974.55
2023-03-27T21:33:16.643Z,98966.50
2023-03-27T21:35:49.187Z,98967.33
2023-03-27T21:38:18.314Z,98963.10
2023-03-27T21:40:47.191Z,98965.10
2023-03-27T21:43:15.364Z,98962.11
2023-03-27T21:45:43.380Z,98962.17
2023-03-27T21:48:11.402Z,98967.98
2023-03-27T21:50:39.297Z,98972.56
2023-03-27T21:53:07.201Z,98967.64
2023-03-27T21:55:35.802Z,98966.08
2023-03-27T21:58:05.019Z,98965.70
2023-03-27T22:00:32.902Z,98964.41
2023-03-27T22:03:00.889Z,98964.63
2023-03-27T22:05:28.781Z,98962.11
2023-03-27T22:07:57.665Z,98960.45
2023-03-27T22:10:25.775Z,98959.30
2023-03-27T22:12:53.802Z,98955.20
2023-03-27T22:15:21.777Z,98955.60
2023-03-27T22:17:49.710Z,98955.14
2023-03-27T22:20:17.662Z,98960.92
2023-03-27T22:22:45.588Z,98962.52
2023-03-27T22:25:13.448Z,98965.02
2023-03-27T22:27:41.474Z,98965.73
2023-03-27T22:30:09.887Z,98965.23
2023-03-27T22:32:37.778Z,98964.08
2023-03-27T22:35:06.185Z,98959.11
2023-03-27T22:37:38.071Z,98960.73
2023-03-27T22:40:07.058Z,98960.96
2023-03-27T22:42:34.956Z,98959.79
2023-03-27T22:45:04.454Z,98960.54
2023-03-27T22:47:32.503Z,98962.28
2023-03-27T22:50:02.370Z,98967.18
2023-03-27T22:52:30.466Z,98968.75
2023-03-27T22:54:58.308Z,98964.81
2023-03-27T22:57:26.152Z,98962.61
2023-03-27T22:59:54.107Z,98960.42
2023-03-27T23:02:22.161Z,98953.73
2023-03-27T23:04:50.178Z,98952.58
2023-03-27T23:07:18.007Z,98949.67
2023-03-27T23:09:45.947Z,98948.84
2023-03-27T23:12:13.809Z,98949.04
2023-03-27T23:14:41.713Z,98944.77
2023-03-27T23:17:09.646Z,98945.81
2023-03-27T23:19:37.484Z,98940.30
2023-03-27T23:22:05.442Z,98946.52
2023-03-27T23:24:33.309Z,98944.77
2023-03-27T23:27:01.180Z,98947.00
2023-03-27T23:29:29.057Z,98946.11
2023-03-27T23:31:57.260Z,98946.43
2023-03-27T23:34:25.465Z,98951.27
2023-03-27T23:36:53.289Z,98949.34
2023-03-27T23:39:21.211Z,98952.42
2023-03-27T23:41:49.038Z,98949.63
2023-03-27T23:44:16.880Z,98945.09
2023-03-27T23:46:44.734Z,98947.32
2023-03-27T23:49:13.220Z,98942.80
2023-03-27T23:51:41.165Z,98939.46
2023-03-27T23:54:08.996Z,98940.46
2023-03-27T23:56:36.854Z,98941.50
2023-03-27T23:59:04.913Z,98941.00
